sensor_id;sensor_type;location;lat;lon;timestamp;P1;durP1;ratioP1;P2;durP2;ratioP2
1308;SDS011;647;48.840;9.314;2023-06-01T00:01:01;57.70;;;2.80;;
1308;SDS011;647;48.840;9.314;2023-06-01T00:03:29;58.00;;;3.97;;
1308;SDS011;647;48.840;9.314;2023-06-01T00:05:56;57.53;;;2.97;;
1308;SDS011;647;48.840;9.314;2023-06-01T00:08:23;57.70;;;3.00;;
1308;SDS011;647;48.840;9.314;2023-06-01T00:10:50;58.17;;;2.83;;
1308;SDS011;647;48.840;9.314;2023-06-01T00:13:19;58.67;;;3.27;;
1308;SDS011;647;48.840;9.314;2023-06-01T00:15:46;58.50;;;2.73;;
1308;SDS011;647;48.840;9.314;2023-06-01T00:18:13;57.27;;;2.47;;
1308;SDS011;647;48.840;9.314;2023-06-01T00:20:40;58.17;;;3.10;;
1308;SDS011;647;48.840;9.314;2023-06-01T00:23:08;57.60;;;2.80;;
1308;SDS011;647;48.840;9.314;2023-06-01T00:25:35;57.97;;;2.67;;
1308;SDS011;647;48.840;9.314;2023-06-01T00:28:02;57.47;;;2.67;;
1308;SDS011;647;48.840;9.314;2023-06-01T00:30:30;58.67;;;2.97;;
1308;SDS011;647;48.840;9.314;2023-06-01T00:32:58;58.30;;;2.70;;
1308;SDS011;647;48.840;9.314;2023-06-01T00:35:25;57.50;;;2.60;;
1308;SDS011;647;48.840;9.314;2023-06-01T00:37:52;57.63;;;2.83;;
1308;SDS011;647;48.840;9.314;2023-06-01T00:40:19;57.77;;;2.90;;
1308;SDS011;647;48.840;9.314;2023-06-01T00:42:46;58.00;;;3.30;;
1308;SDS011;647;48.840;9.314;2023-06-01T00:45:13;57.33;;;2.80;;
1308;SDS011;647;48.840;9.314;2023-06-01T00:47:42;57.60;;;2.70;;
1308;SDS011;647;48.840;9.314;2023-06-01T00:50:10;58.97;;;3.53;;
1308;SDS011;647;48.840;9.314;2023-06-01T00:52:37;58.67;;;4.80;;
1308;SDS011;647;48.840;9.314;2023-06-01T00:55:05;57.80;;;3.10;;
1308;SDS011;647;48.840;9.314;2023-06-01T00:57:34;58.00;;;2.80;;
1308;SDS011;647;48.840;9.314;2023-06-01T01:00:01;57.50;;;3.23;;
1308;SDS011;647;48.840;9.314;2023-06-01T01:02:34;57.50;;;2.70;;
1308;SDS011;647;48.840;9.314;2023-06-01T01:05:04;58.10;;;3.40;;
1308;SDS011;647;48.840;9.314;2023-06-01T01:07:35;58.40;;;3.40;;
1308;SDS011;647;48.840;9.314;2023-06-01T01:10:06;58.20;;;2.80;;
1308;SDS011;647;48.840;9.314;2023-06-01T01:12:40;57.27;;;2.73;;
1308;SDS011;647;48.840;9.314;2023-06-01T01:15:11;57.60;;;2.70;;
1308;SDS011;647;48.840;9.314;2023-06-01T01:17:40;58.87;;;4.83;;
1308;SDS011;647;48.840;9.314;2023-06-01T01:20:10;57.53;;;2.70;;
1308;SDS011;647;48.840;9.314;2023-06-01T01:22:47;57.43;;;2.40;;
1308;SDS011;647;48.840;9.314;2023-06-01T01:25:25;57.33;;;2.40;;
1308;SDS011;647;48.840;9.314;2023-06-01T01:28:06;57.63;;;2.60;;
1308;SDS011;647;48.840;9.314;2023-06-01T01:30:37;58.47;;;3.70;;
1308;SDS011;647;48.840;9.314;2023-06-01T01:33:04;57.43;;;2.97;;
1308;SDS011;647;48.840;9.314;2023-06-01T01:35:32;57.40;;;2.40;;
1308;SDS011;647;48.840;9.314;2023-06-01T01:38:00;57.50;;;2.60;;
1308;SDS011;647;48.840;9.314;2023-06-01T01:40:27;57.47;;;2.60;;
1308;SDS011;647;48.840;9.314;2023-06-01T01:42:54;57.47;;;2.43;;
1308;SDS011;647;48.840;9.314;2023-06-01T01:45:22;57.67;;;2.93;;
1308;SDS011;647;48.840;9.314;2023-06-01T01:47:55;57.57;;;2.70;;
1308;SDS011;647;48.840;9.314;2023-06-01T01:50:26;58.03;;;3.87;;
1308;SDS011;647;48.840;9.314;2023-06-01T01:52:54;57.70;;;2.70;;
1308;SDS011;647;48.840;9.314;2023-06-01T01:55:21;57.53;;;2.47;;
1308;SDS011;647;48.840;9.314;2023-06-01T01:57:50;57.70;;;2.90;;
1308;SDS011;647;48.840;9.314;2023-06-01T02:00:18;58.30;;;3.13;;
1308;SDS011;647;48.840;9.314;2023-06-01T02:02:46;57.37;;;2.60;;
1308;SDS011;647;48.840;9.314;2023-06-01T02:05:14;57.97;;;3.07;;
1308;SDS011;647;48.840;9.314;2023-06-01T02:07:41;57.57;;;2.60;;
1308;SDS011;647;48.840;9.314;2023-06-01T02:10:09;58.20;;;3.60;;
1308;SDS011;647;48.840;9.314;2023-06-01T02:12:36;57.87;;;2.90;;
1308;SDS011;647;48.840;9.314;2023-06-01T02:15:03;57.43;;;2.70;;
1308;SDS011;647;48.840;9.314;2023-06-01T02:17:31;57.37;;;2.60;;
1308;SDS011;647;48.840;9.314;2023-06-01T02:19:58;57.57;;;2.70;;
1308;SDS011;647;48.840;9.314;2023-06-01T02:22:27;57.57;;;2.70;;
1308;SDS011;647;48.840;9.314;2023-06-01T02:24:54;57.47;;;2.90;;
1308;SDS011;647;48.840;9.314;2023-06-01T02:27:21;57.30;;;2.43;;
1308;SDS011;647;48.840;9.314;2023-06-01T02:29:48;57.27;;;2.53;;
1308;SDS011;647;48.840;9.314;2023-06-01T02:32:16;57.57;;;2.90;;
1308;SDS011;647;48.840;9.314;2023-06-01T02:34:43;57.70;;;3.20;;
1308;SDS011;647;48.840;9.314;2023-06-01T02:37:10;57.50;;;2.70;;
1308;SDS011;647;48.840;9.314;2023-06-01T02:39:38;57.70;;;2.90;;
1308;SDS011;647;48.840;9.314;2023-06-01T02:42:05;57.90;;;3.10;;
1308;SDS011;647;48.840;9.314;2023-06-01T02:44:33;57.97;;;2.57;;
1308;SDS011;647;48.840;9.314;2023-06-01T02:47:00;57.90;;;3.00;;
1308;SDS011;647;48.840;9.314;2023-06-01T02:49:27;57.80;;;2.93;;
1308;SDS011;647;48.840;9.314;2023-06-01T02:51:54;57.27;;;2.60;;
1308;SDS011;647;48.840;9.314;2023-06-01T02:54:21;57.90;;;3.27;;
1308;SDS011;647;48.840;9.314;2023-06-01T02:56:50;57.90;;;3.33;;
1308;SDS011;647;48.840;9.314;2023-06-01T02:59:17;57.80;;;3.13;;
1308;SDS011;647;48.840;9.314;2023-06-01T03:01:44;57.43;;;2.73;;
1308;SDS011;647;48.840;9.314;2023-06-01T03:04:11;57.77;;;2.87;;
1308;SDS011;647;48.840;9.314;2023-06-01T03:06:40;57.60;;;2.87;;
1308;SDS011;647;48.840;9.314;2023-06-01T03:09:08;57.80;;;2.80;;
1308;SDS011;647;48.840;9.314;2023-06-01T03:11:38;57.87;;;3.10;;
1308;SDS011;647;48.840;9.314;2023-06-01T03:14:07;57.27;;;2.60;;
1308;SDS011;647;48.840;9.314;2023-06-01T03:16:34;58.40;;;2.80;;
1308;SDS011;647;48.840;9.314;2023-06-01T03:19:01;57.63;;;2.40;;
1308;SDS011;647;48.840;9.314;2023-06-01T03:21:28;57.47;;;2.70;;
1308;SDS011;647;48.840;9.314;2023-06-01T03:23:56;57.67;;;2.80;;
1308;SDS011;647;48.840;9.314;2023-06-01T03:26:23;57.50;;;2.57;;
1308;SDS011;647;48.840;9.314;2023-06-01T03:28:50;58.30;;;3.43;;
1308;SDS011;647;48.840;9.314;2023-06-01T03:31:19;57.57;;;2.87;;
1308;SDS011;647;48.840;9.314;2023-06-01T03:33:46;57.47;;;2.70;;
1308;SDS011;647;48.840;9.314;2023-06-01T03:36:14;57.47;;;2.70;;
1308;SDS011;647;48.840;9.314;2023-06-01T03:38:41;57.70;;;2.90;;
1308;SDS011;647;48.840;9.314;2023-06-01T03:41:08;57.73;;;3.10;;
1308;SDS011;647;48.840;9.314;2023-06-01T03:43:35;57.50;;;2.87;;
1308;SDS011;647;48.840;9.314;2023-06-01T03:46:02;57.67;;;2.70;;
1308;SDS011;647;48.840;9.314;2023-06-01T03:48:31;57.37;;;2.50;;
1308;SDS011;647;48.840;9.314;2023-06-01T03:50:58;57.47;;;2.70;;
1308;SDS011;647;48.840;9.314;2023-06-01T03:53:25;57.43;;;2.63;;
1308;SDS011;647;48.840;9.314;2023-06-01T03:55:52;57.63;;;3.03;;
1308;SDS011;647;48.840;9.314;2023-06-01T03:58:19;58.97;;;2.97;;
1308;SDS011;647;48.840;9.314;2023-06-01T04:00:48;57.60;;;3.03;;
1308;SDS011;647;48.840;9.314;2023-06-01T04:03:16;57.47;;;2.60;;
1308;SDS011;647;48.840;9.314;2023-06-01T04:05:47;57.50;;;2.90;;
1308;SDS011;647;48.840;9.314;2023-06-01T04:08:16;57.33;;;2.60;;
1308;SDS011;647;48.840;9.314;2023-06-01T04:10:45;57.80;;;2.83;;
1308;SDS011;647;48.840;9.314;2023-06-01T04:13:12;57.07;;;2.57;;
1308;SDS011;647;48.840;9.314;2023-06-01T04:15:39;57.27;;;2.63;;
1308;SDS011;647;48.840;9.314;2023-06-01T04:18:06;57.67;;;3.00;;
1308;SDS011;647;48.840;9.314;2023-06-01T04:20:33;58.87;;;3.10;;
1308;SDS011;647;48.840;9.314;2023-06-01T04:23:02;59.03;;;4.43;;
1308;SDS011;647;48.840;9.314;2023-06-01T04:25:29;57.80;;;2.80;;
1308;SDS011;647;48.840;9.314;2023-06-01T04:27:57;58.83;;;3.87;;
1308;SDS011;647;48.840;9.314;2023-06-01T04:33:28;57.90;;;3.40;;
1308;SDS011;647;48.840;9.314;2023-06-01T04:35:55;58.47;;;2.93;;
1308;SDS011;647;48.840;9.314;2023-06-01T04:38:23;57.47;;;2.50;;
1308;SDS011;647;48.840;9.314;2023-06-01T04:40:50;57.30;;;2.70;;
1308;SDS011;647;48.840;9.314;2023-06-01T04:43:19;57.77;;;3.20;;
1308;SDS011;647;48.840;9.314;2023-06-01T04:45:48;57.17;;;2.40;;
1308;SDS011;647;48.840;9.314;2023-06-01T04:48:16;57.37;;;2.83;;
1308;SDS011;647;48.840;9.314;2023-06-01T04:50:43;57.40;;;2.70;;
1308;SDS011;647;48.840;9.314;2023-06-01T04:53:10;57.70;;;3.27;;
1308;SDS011;647;48.840;9.314;2023-06-01T04:55:38;57.10;;;2.60;;
1308;SDS011;647;48.840;9.314;2023-06-01T04:58:09;58.40;;;3.63;;
1308;SDS011;647;48.840;9.314;2023-06-01T05:00:36;57.67;;;2.77;;
1308;SDS011;647;48.840;9.314;2023-06-01T05:03:04;57.30;;;2.50;;
1308;SDS011;647;48.840;9.314;2023-06-01T05:05:32;57.37;;;2.60;;
1308;SDS011;647;48.840;9.314;2023-06-01T05:07:59;57.43;;;3.03;;
1308;SDS011;647;48.840;9.314;2023-06-01T05:10:26;57.87;;;2.60;;
1308;SDS011;647;48.840;9.314;2023-06-01T05:12:55;57.40;;;2.90;;
1308;SDS011;647;48.840;9.314;2023-06-01T05:15:22;57.47;;;2.70;;
1308;SDS011;647;48.840;9.314;2023-06-01T05:17:49;57.37;;;2.50;;
1308;SDS011;647;48.840;9.314;2023-06-01T05:20:16;57.37;;;2.60;;
1308;SDS011;647;48.840;9.314;2023-06-01T05:22:43;57.87;;;3.50;;
1308;SDS011;647;48.840;9.314;2023-06-01T05:25:10;57.70;;;3.20;;
1308;SDS011;647;48.840;9.314;2023-06-01T05:27:38;57.17;;;2.93;;
1308;SDS011;647;48.840;9.314;2023-06-01T05:30:07;57.20;;;2.90;;
1308;SDS011;647;48.840;9.314;2023-06-01T05:32:34;59.97;;;2.97;;
1308;SDS011;647;48.840;9.314;2023-06-01T05:35:01;57.03;;;2.37;;
1308;SDS011;647;48.840;9.314;2023-06-01T05:37:29;57.97;;;3.17;;
1308;SDS011;647;48.840;9.314;2023-06-01T05:39:56;57.30;;;2.33;;
1308;SDS011;647;48.840;9.314;2023-06-01T05:42:23;57.17;;;2.80;;
1308;SDS011;647;48.840;9.314;2023-06-01T05:44:50;57.60;;;2.80;;
1308;SDS011;647;48.840;9.314;2023-06-01T05:47:19;57.57;;;2.90;;
1308;SDS011;647;48.840;9.314;2023-06-01T05:49:46;58.40;;;3.50;;
1308;SDS011;647;48.840;9.314;2023-06-01T05:52:13;57.50;;;2.60;;
1308;SDS011;647;48.840;9.314;2023-06-01T05:54:41;57.07;;;2.50;;
1308;SDS011;647;48.840;9.314;2023-06-01T05:57:08;57.23;;;2.60;;
1308;SDS011;647;48.840;9.314;2023-06-01T05:59:35;57.07;;;2.37;;
1308;SDS011;647;48.840;9.314;2023-06-01T06:02:02;56.97;;;2.40;;
1308;SDS011;647;48.840;9.314;2023-06-01T06:04:31;57.37;;;2.30;;
1308;SDS011;647;48.840;9.314;2023-06-01T06:06:58;57.37;;;2.20;;
1308;SDS011;647;48.840;9.314;2023-06-01T06:09:25;57.37;;;2.60;;
1308;SDS011;647;48.840;9.314;2023-06-01T06:11:52;58.30;;;3.10;;
1308;SDS011;647;48.840;9.314;2023-06-01T06:14:19;57.07;;;2.57;;
1308;SDS011;647;48.840;9.314;2023-06-01T06:16:46;57.50;;;2.77;;
1308;SDS011;647;48.840;9.314;2023-06-01T06:19:13;57.43;;;3.13;;
1308;SDS011;647;48.840;9.314;2023-06-01T06:21:42;57.27;;;2.70;;
1308;SDS011;647;48.840;9.314;2023-06-01T06:24:09;57.60;;;2.63;;
1308;SDS011;647;48.840;9.314;2023-06-01T06:26:37;57.17;;;2.43;;
1308;SDS011;647;48.840;9.314;2023-06-01T06:29:04;57.00;;;2.43;;
1308;SDS011;647;48.840;9.314;2023-06-01T06:31:31;57.50;;;2.77;;
1308;SDS011;647;48.840;9.314;2023-06-01T06:33:59;57.40;;;2.63;;
1308;SDS011;647;48.840;9.314;2023-06-01T06:36:26;57.27;;;2.83;;
1308;SDS011;647;48.840;9.314;2023-06-01T06:38:55;58.77;;;3.10;;
1308;SDS011;647;48.840;9.314;2023-06-01T06:41:22;57.13;;;2.53;;
1308;SDS011;647;48.840;9.314;2023-06-01T06:43:50;58.67;;;3.90;;
1308;SDS011;647;48.840;9.314;2023-06-01T06:46:17;57.50;;;3.17;;
1308;SDS011;647;48.840;9.314;2023-06-01T06:48:44;58.27;;;2.87;;
1308;SDS011;647;48.840;9.314;2023-06-01T06:51:11;57.13;;;2.43;;
1308;SDS011;647;48.840;9.314;2023-06-01T06:53:38;56.87;;;2.50;;
1308;SDS011;647;48.840;9.314;2023-06-01T06:56:06;57.87;;;2.60;;
1308;SDS011;647;48.840;9.314;2023-06-01T06:58:34;57.30;;;2.87;;
1308;SDS011;647;48.840;9.314;2023-06-01T07:01:01;57.20;;;2.27;;
1308;SDS011;647;48.840;9.314;2023-06-01T07:03:29;57.10;;;2.73;;
1308;SDS011;647;48.840;9.314;2023-06-01T07:05:57;57.70;;;2.90;;
1308;SDS011;647;48.840;9.314;2023-06-01T07:08:24;57.17;;;2.30;;
1308;SDS011;647;48.840;9.314;2023-06-01T07:10:52;57.50;;;2.50;;
1308;SDS011;647;48.840;9.314;2023-06-01T07:13:22;59.30;;;3.20;;
1308;SDS011;647;48.840;9.314;2023-06-01T07:15:49;57.17;;;2.47;;
1308;SDS011;647;48.840;9.314;2023-06-01T07:18:16;56.97;;;2.30;;
1308;SDS011;647;48.840;9.314;2023-06-01T07:20:43;56.83;;;2.30;;
1308;SDS011;647;48.840;9.314;2023-06-01T07:23:10;57.80;;;2.87;;
1308;SDS011;647;48.840;9.314;2023-06-01T07:25:38;57.17;;;2.30;;
1308;SDS011;647;48.840;9.314;2023-06-01T07:28:05;58.93;;;2.67;;
1308;SDS011;647;48.840;9.314;2023-06-01T07:30:34;57.27;;;2.60;;
1308;SDS011;647;48.840;9.314;2023-06-01T07:33:02;57.70;;;2.70;;
1308;SDS011;647;48.840;9.314;2023-06-01T07:35:29;58.73;;;3.83;;
1308;SDS011;647;48.840;9.314;2023-06-01T07:37:57;57.50;;;2.50;;
1308;SDS011;647;48.840;9.314;2023-06-01T07:40:25;57.57;;;2.43;;
1308;SDS011;647;48.840;9.314;2023-06-01T07:42:52;60.07;;;3.07;;
1308;SDS011;647;48.840;9.314;2023-06-01T07:45:19;58.50;;;3.03;;
1308;SDS011;647;48.840;9.314;2023-06-01T07:47:48;57.30;;;2.90;;
1308;SDS011;647;48.840;9.314;2023-06-01T07:50:15;57.00;;;2.60;;
1308;SDS011;647;48.840;9.314;2023-06-01T07:52:42;57.20;;;2.40;;
1308;SDS011;647;48.840;9.314;2023-06-01T07:55:10;58.30;;;2.67;;
1308;SDS011;647;48.840;9.314;2023-06-01T07:57:38;58.10;;;2.50;;
1308;SDS011;647;48.840;9.314;2023-06-01T08:00:06;56.87;;;2.23;;
1308;SDS011;647;48.840;9.314;2023-06-01T08:02:37;57.80;;;2.67;;
1308;SDS011;647;48.840;9.314;2023-06-01T08:05:06;57.87;;;2.80;;
1308;SDS011;647;48.840;9.314;2023-06-01T08:07:33;57.90;;;2.83;;
1308;SDS011;647;48.840;9.314;2023-06-01T08:10:00;57.20;;;2.40;;
1308;SDS011;647;48.840;9.314;2023-06-01T08:12:27;57.17;;;2.23;;
1308;SDS011;647;48.840;9.314;2023-06-01T08:14:54;57.33;;;2.40;;
1308;SDS011;647;48.840;9.314;2023-06-01T08:17:22;57.87;;;2.80;;
1308;SDS011;647;48.840;9.314;2023-06-01T08:19:49;57.30;;;2.17;;
1308;SDS011;647;48.840;9.314;2023-06-01T08:22:19;57.63;;;2.70;;
1308;SDS011;647;48.840;9.314;2023-06-01T08:24:46;57.60;;;2.60;;
1308;SDS011;647;48.840;9.314;2023-06-01T08:27:16;57.17;;;2.40;;
1308;SDS011;647;48.840;9.314;2023-06-01T08:29:44;57.20;;;2.40;;
1308;SDS011;647;48.840;9.314;2023-06-01T08:32:12;57.07;;;2.20;;
1308;SDS011;647;48.840;9.314;2023-06-01T08:34:39;56.87;;;2.63;;
1308;SDS011;647;48.840;9.314;2023-06-01T08:37:06;56.90;;;2.33;;
1308;SDS011;647;48.840;9.314;2023-06-01T08:39:35;58.37;;;2.90;;
1308;SDS011;647;48.840;9.314;2023-06-01T08:42:07;57.10;;;2.20;;
1308;SDS011;647;48.840;9.314;2023-06-01T08:44:34;57.07;;;2.30;;
1308;SDS011;647;48.840;9.314;2023-06-01T08:47:02;56.83;;;2.30;;
1308;SDS011;647;48.840;9.314;2023-06-01T08:49:30;57.17;;;2.60;;
1308;SDS011;647;48.840;9.314;2023-06-01T08:51:57;56.87;;;2.30;;
1308;SDS011;647;48.840;9.314;2023-06-01T08:54:26;57.27;;;2.50;;
1308;SDS011;647;48.840;9.314;2023-06-01T08:56:57;56.97;;;2.87;;
1308;SDS011;647;48.840;9.314;2023-06-01T08:59:27;57.20;;;2.30;;
1308;SDS011;647;48.840;9.314;2023-06-01T09:01:54;57.13;;;2.40;;
1308;SDS011;647;48.840;9.314;2023-06-01T09:04:22;59.00;;;3.80;;
1308;SDS011;647;48.840;9.314;2023-06-01T09:06:49;56.90;;;2.17;;
1308;SDS011;647;48.840;9.314;2023-06-01T09:09:16;56.97;;;2.57;;
1308;SDS011;647;48.840;9.314;2023-06-01T09:11:44;56.77;;;2.30;;
1308;SDS011;647;48.840;9.314;2023-06-01T09:14:21;57.20;;;2.20;;
1308;SDS011;647;48.840;9.314;2023-06-01T09:16:49;57.27;;;2.33;;
1308;SDS011;647;48.840;9.314;2023-06-01T09:19:16;58.27;;;2.70;;
1308;SDS011;647;48.840;9.314;2023-06-01T09:21:55;57.17;;;2.50;;
1308;SDS011;647;48.840;9.314;2023-06-01T09:24:23;58.00;;;3.63;;
1308;SDS011;647;48.840;9.314;2023-06-01T09:26:50;56.97;;;2.20;;
1308;SDS011;647;48.840;9.314;2023-06-01T09:29:18;57.40;;;2.80;;
1308;SDS011;647;48.840;9.314;2023-06-01T09:31:46;57.47;;;2.77;;
1308;SDS011;647;48.840;9.314;2023-06-01T09:34:14;58.00;;;2.90;;
1308;SDS011;647;48.840;9.314;2023-06-01T09:36:44;57.37;;;2.37;;
1308;SDS011;647;48.840;9.314;2023-06-01T09:39:11;57.17;;;2.20;;
1308;SDS011;647;48.840;9.314;2023-06-01T09:41:45;58.37;;;3.00;;
1308;SDS011;647;48.840;9.314;2023-06-01T09:44:13;57.20;;;2.50;;
1308;SDS011;647;48.840;9.314;2023-06-01T09:46:48;57.70;;;2.40;;
1308;SDS011;647;48.840;9.314;2023-06-01T09:49:19;57.60;;;2.30;;
1308;SDS011;647;48.840;9.314;2023-06-01T09:51:47;57.10;;;2.33;;
1308;SDS011;647;48.840;9.314;2023-06-01T09:54:27;57.60;;;2.40;;
1308;SDS011;647;48.840;9.314;2023-06-01T09:56:56;58.07;;;2.60;;
1308;SDS011;647;48.840;9.314;2023-06-01T09:59:24;57.60;;;2.40;;
1308;SDS011;647;48.840;9.314;2023-06-01T10:01:53;57.83;;;2.90;;
1308;SDS011;647;48.840;9.314;2023-06-01T10:04:21;57.00;;;2.37;;
1308;SDS011;647;48.840;9.314;2023-06-01T10:06:49;57.50;;;3.87;;
1308;SDS011;647;48.840;9.314;2023-06-01T10:09:17;57.30;;;2.67;;
1308;SDS011;647;48.840;9.314;2023-06-01T10:11:46;57.63;;;2.87;;
1308;SDS011;647;48.840;9.314;2023-06-01T10:14:13;57.07;;;2.13;;
1308;SDS011;647;48.840;9.314;2023-06-01T10:16:40;57.20;;;2.30;;
1308;SDS011;647;48.840;9.314;2023-06-01T10:19:10;58.13;;;3.90;;
1308;SDS011;647;48.840;9.314;2023-06-01T10:21:37;57.50;;;2.70;;
1308;SDS011;647;48.840;9.314;2023-06-01T10:24:07;56.77;;;2.40;;
1308;SDS011;647;48.840;9.314;2023-06-01T10:26:36;56.80;;;2.73;;
1308;SDS011;647;48.840;9.314;2023-06-01T10:29:03;56.23;;;2.30;;
1308;SDS011;647;48.840;9.314;2023-06-01T10:31:35;56.77;;;2.37;;
1308;SDS011;647;48.840;9.314;2023-06-01T10:34:02;55.93;;;1.90;;
1308;SDS011;647;48.840;9.314;2023-06-01T10:39:28;56.13;;;2.00;;
1308;SDS011;647;48.840;9.314;2023-06-01T10:41:57;56.67;;;2.20;;
1308;SDS011;647;48.840;9.314;2023-06-01T10:47:39;55.83;;;2.20;;
1308;SDS011;647;48.840;9.314;2023-06-01T10:50:07;56.10;;;2.30;;
1308;SDS011;647;48.840;9.314;2023-06-01T10:52:34;55.80;;;2.50;;
1308;SDS011;647;48.840;9.314;2023-06-01T11:00:43;56.00;;;2.33;;
1308;SDS011;647;48.840;9.314;2023-06-01T11:03:11;55.50;;;2.23;;
1308;SDS011;647;48.840;9.314;2023-06-01T11:05:39;55.57;;;1.97;;
1308;SDS011;647;48.840;9.314;2023-06-01T11:08:08;55.90;;;2.30;;
1308;SDS011;647;48.840;9.314;2023-06-01T11:10:56;55.90;;;2.50;;
1308;SDS011;647;48.840;9.314;2023-06-01T11:13:28;57.37;;;2.70;;
1308;SDS011;647;48.840;9.314;2023-06-01T11:18:47;55.90;;;2.07;;
1308;SDS011;647;48.840;9.314;2023-06-01T11:21:20;55.60;;;2.10;;
1308;SDS011;647;48.840;9.314;2023-06-01T11:23:48;56.47;;;2.73;;
1308;SDS011;647;48.840;9.314;2023-06-01T11:26:17;56.17;;;2.40;;
1308;SDS011;647;48.840;9.314;2023-06-01T11:28:44;55.30;;;2.20;;
1308;SDS011;647;48.840;9.314;2023-06-01T11:31:12;55.70;;;2.20;;
1308;SDS011;647;48.840;9.314;2023-06-01T11:33:41;56.00;;;2.80;;
1308;SDS011;647;48.840;9.314;2023-06-01T11:36:10;55.90;;;2.20;;
1308;SDS011;647;48.840;9.314;2023-06-01T11:38:40;56.20;;;2.70;;
1308;SDS011;647;48.840;9.314;2023-06-01T11:41:08;56.20;;;2.60;;
1308;SDS011;647;48.840;9.314;2023-06-01T11:43:35;55.37;;;1.87;;
1308;SDS011;647;48.840;9.314;2023-06-01T11:46:03;55.70;;;2.47;;
1308;SDS011;647;48.840;9.314;2023-06-01T11:48:31;55.60;;;2.27;;
1308;SDS011;647;48.840;9.314;2023-06-01T11:50:59;56.73;;;3.17;;
1308;SDS011;647;48.840;9.314;2023-06-01T11:53:28;56.33;;;2.83;;
1308;SDS011;647;48.840;9.314;2023-06-01T11:55:57;55.47;;;2.13;;
1308;SDS011;647;48.840;9.314;2023-06-01T11:58:24;55.27;;;2.20;;
1308;SDS011;647;48.840;9.314;2023-06-01T12:00:52;54.57;;;2.43;;
1308;SDS011;647;48.840;9.314;2023-06-01T12:03:19;55.27;;;2.27;;
1308;SDS011;647;48.840;9.314;2023-06-01T12:05:46;55.30;;;2.10;;
1308;SDS011;647;48.840;9.314;2023-06-01T12:08:14;55.60;;;2.30;;
1308;SDS011;647;48.840;9.314;2023-06-01T12:10:44;55.17;;;2.23;;
1308;SDS011;647;48.840;9.314;2023-06-01T12:13:11;55.73;;;2.30;;
1308;SDS011;647;48.840;9.314;2023-06-01T12:15:38;56.90;;;3.47;;
1308;SDS011;647;48.840;9.314;2023-06-01T12:18:06;56.57;;;2.83;;
1308;SDS011;647;48.840;9.314;2023-06-01T12:20:34;56.70;;;1.97;;
1308;SDS011;647;48.840;9.314;2023-06-01T12:23:02;55.40;;;2.20;;
1308;SDS011;647;48.840;9.314;2023-06-01T12:25:29;55.20;;;1.90;;
1308;SDS011;647;48.840;9.314;2023-06-01T12:28:05;55.87;;;2.07;;
1308;SDS011;647;48.840;9.314;2023-06-01T12:30:32;55.30;;;1.90;;
1308;SDS011;647;48.840;9.314;2023-06-01T12:33:00;55.33;;;2.10;;
1308;SDS011;647;48.840;9.314;2023-06-01T12:35:29;55.37;;;2.17;;
1308;SDS011;647;48.840;9.314;2023-06-01T12:38:03;56.00;;;2.60;;
1308;SDS011;647;48.840;9.314;2023-06-01T12:40:30;55.70;;;2.10;;
1308;SDS011;647;48.840;9.314;2023-06-01T12:42:58;55.17;;;2.50;;
1308;SDS011;647;48.840;9.314;2023-06-01T12:45:27;55.30;;;2.27;;
1308;SDS011;647;48.840;9.314;2023-06-01T12:48:02;55.50;;;2.30;;
1308;SDS011;647;48.840;9.314;2023-06-01T12:50:29;56.10;;;2.77;;
1308;SDS011;647;48.840;9.314;2023-06-01T12:52:56;55.30;;;2.10;;
1308;SDS011;647;48.840;9.314;2023-06-01T12:55:23;55.67;;;2.50;;
1308;SDS011;647;48.840;9.314;2023-06-01T12:57:51;55.40;;;2.20;;
1308;SDS011;647;48.840;9.314;2023-06-01T13:00:19;55.07;;;1.80;;
1308;SDS011;647;48.840;9.314;2023-06-01T13:02:48;55.83;;;2.20;;
1308;SDS011;647;48.840;9.314;2023-06-01T13:05:15;55.20;;;1.70;;
1308;SDS011;647;48.840;9.314;2023-06-01T13:07:43;54.73;;;1.63;;
1308;SDS011;647;48.840;9.314;2023-06-01T13:10:10;56.20;;;2.10;;
1308;SDS011;647;48.840;9.314;2023-06-01T13:12:38;55.50;;;2.30;;
1308;SDS011;647;48.840;9.314;2023-06-01T13:15:05;54.80;;;2.13;;
1308;SDS011;647;48.840;9.314;2023-06-01T13:17:33;55.17;;;2.23;;
1308;SDS011;647;48.840;9.314;2023-06-01T13:20:02;55.93;;;2.73;;
1308;SDS011;647;48.840;9.314;2023-06-01T13:22:31;55.40;;;1.90;;
1308;SDS011;647;48.840;9.314;2023-06-01T13:24:58;54.67;;;1.80;;
1308;SDS011;647;48.840;9.314;2023-06-01T13:27:25;55.30;;;2.17;;
1308;SDS011;647;48.840;9.314;2023-06-01T13:29:53;55.40;;;2.20;;
1308;SDS011;647;48.840;9.314;2023-06-01T13:32:20;55.30;;;1.87;;
1308;SDS011;647;48.840;9.314;2023-06-01T13:34:47;55.43;;;2.00;;
1308;SDS011;647;48.840;9.314;2023-06-01T13:37:15;55.17;;;2.03;;
1308;SDS011;647;48.840;9.314;2023-06-01T13:39:43;55.50;;;2.03;;
1308;SDS011;647;48.840;9.314;2023-06-01T13:42:10;56.30;;;2.60;;
1308;SDS011;647;48.840;9.314;2023-06-01T13:44:37;55.23;;;2.10;;
1308;SDS011;647;48.840;9.314;2023-06-01T13:47:05;55.37;;;2.00;;
1308;SDS011;647;48.840;9.314;2023-06-01T13:49:33;55.40;;;2.00;;
1308;SDS011;647;48.840;9.314;2023-06-01T13:52:00;55.67;;;2.40;;
1308;SDS011;647;48.840;9.314;2023-06-01T13:54:28;55.47;;;2.00;;
1308;SDS011;647;48.840;9.314;2023-06-01T13:56:55;55.30;;;2.10;;
1308;SDS011;647;48.840;9.314;2023-06-01T13:59:23;55.60;;;2.20;;
1308;SDS011;647;48.840;9.314;2023-06-01T14:01:50;56.10;;;2.50;;
1308;SDS011;647;48.840;9.314;2023-06-01T14:04:17;55.47;;;2.00;;
1308;SDS011;647;48.840;9.314;2023-06-01T14:06:44;55.90;;;2.50;;
1308;SDS011;647;48.840;9.314;2023-06-01T14:09:11;55.43;;;2.03;;
1308;SDS011;647;48.840;9.314;2023-06-01T14:11:39;55.40;;;1.90;;
1308;SDS011;647;48.840;9.314;2023-06-01T14:14:06;55.70;;;2.30;;
1308;SDS011;647;48.840;9.314;2023-06-01T14:16:34;55.17;;;2.07;;
1308;SDS011;647;48.840;9.314;2023-06-01T14:19:01;55.27;;;2.00;;
1308;SDS011;647;48.840;9.314;2023-06-01T14:21:28;55.17;;;1.70;;
1308;SDS011;647;48.840;9.314;2023-06-01T14:23:57;55.90;;;2.10;;
1308;SDS011;647;48.840;9.314;2023-06-01T14:26:24;55.67;;;2.23;;
1308;SDS011;647;48.840;9.314;2023-06-01T14:28:53;55.27;;;1.90;;
1308;SDS011;647;48.840;9.314;2023-06-01T14:31:21;55.60;;;2.10;;
1308;SDS011;647;48.840;9.314;2023-06-01T14:33:48;55.93;;;2.10;;
1308;SDS011;647;48.840;9.314;2023-06-01T14:36:15;55.20;;;2.00;;
1308;SDS011;647;48.840;9.314;2023-06-01T14:38:42;55.37;;;2.33;;
1308;SDS011;647;48.840;9.314;2023-06-01T14:41:09;56.00;;;2.30;;
1308;SDS011;647;48.840;9.314;2023-06-01T14:43:36;55.57;;;2.43;;
1308;SDS011;647;48.840;9.314;2023-06-01T14:46:05;56.30;;;2.33;;
1308;SDS011;647;48.840;9.314;2023-06-01T14:48:32;54.97;;;2.00;;
1308;SDS011;647;48.840;9.314;2023-06-01T14:50:59;55.60;;;2.20;;
1308;SDS011;647;48.840;9.314;2023-06-01T14:53:27;55.80;;;2.23;;
1308;SDS011;647;48.840;9.314;2023-06-01T14:55:54;55.37;;;2.00;;
1308;SDS011;647;48.840;9.314;2023-06-01T14:58:21;55.47;;;2.00;;
1308;SDS011;647;48.840;9.314;2023-06-01T15:00:48;55.47;;;2.10;;
1308;SDS011;647;48.840;9.314;2023-06-01T15:03:17;55.37;;;1.80;;
1308;SDS011;647;48.840;9.314;2023-06-01T15:05:44;55.27;;;1.80;;
1308;SDS011;647;48.840;9.314;2023-06-01T15:08:11;55.67;;;1.80;;
1308;SDS011;647;48.840;9.314;2023-06-01T15:10:39;55.27;;;1.67;;
1308;SDS011;647;48.840;9.314;2023-06-01T15:13:06;55.33;;;1.90;;
1308;SDS011;647;48.840;9.314;2023-06-01T15:15:33;55.57;;;1.90;;
1308;SDS011;647;48.840;9.314;2023-06-01T15:18:01;55.47;;;1.70;;
1308;SDS011;647;48.840;9.314;2023-06-01T15:20:29;56.07;;;2.77;;
1308;SDS011;647;48.840;9.314;2023-06-01T15:22:56;55.70;;;1.87;;
1308;SDS011;647;48.840;9.314;2023-06-01T15:25:23;55.67;;;1.83;;
1308;SDS011;647;48.840;9.314;2023-06-01T15:27:50;55.43;;;1.70;;
1308;SDS011;647;48.840;9.314;2023-06-01T15:30:18;55.90;;;1.90;;
1308;SDS011;647;48.840;9.314;2023-06-01T15:32:45;55.67;;;1.80;;
1308;SDS011;647;48.840;9.314;2023-06-01T15:35:13;55.90;;;1.90;;
1308;SDS011;647;48.840;9.314;2023-06-01T15:37:41;55.60;;;1.80;;